Cameron Station, Virginia
Current Conditions -  °F | °C
As of 11:52 AM on Thursday 18 Dec 2014 (Local Time) from KDCA Reporting Station
Broken Clouds Broken Clouds  
Wind Chill: 35°   Ceiling: 4100
Heat Index: 41°   Visibility: 10mi
Dew Point: 21°   Wind: 10mph
Humidity: 45%   Direction: 320°NW
Pressure: 30.17"   Gusts: 22mph
Location:  38.8134°N, 77.1153°W
Report Text: KDCA 181652Z 32009G19KT 270V360 10SM BKN041 BKN250 05/M06 A3017 RMK AO2 SLP215 T00501061
Loading
Personal Weather Stations






























Interactive Weather Map New forecast layout! Learn more

10-Day Weather Forecast

Advertisements
Track Severe Weather on mobile